createdAt,value
2018-12-03T00:00:26.406Z,12.10
2018-12-03T00:02:58.255Z,12.10
2018-12-03T00:06:06.607Z,12.10
2018-12-03T00:08:38.440Z,12.10
2018-12-03T00:11:08.300Z,12.10
2018-12-03T00:13:39.186Z,12.10
2018-12-03T00:16:09.042Z,12.00
2018-12-03T00:18:38.923Z,12.00
2018-12-03T00:21:08.768Z,12.00
2018-12-03T00:23:38.648Z,12.00
2018-12-03T00:26:08.547Z,12.00
2018-12-03T00:28:38.429Z,12.00
2018-12-03T00:31:08.319Z,12.00
2018-12-03T00:33:38.179Z,12.00
2018-12-03T00:36:08.062Z,12.00
2018-12-03T00:38:37.916Z,12.00
2018-12-03T00:41:07.900Z,12.10
2018-12-03T00:43:37.769Z,12.00
2018-12-03T00:46:07.731Z,12.10
2018-12-03T00:48:37.614Z,12.10
2018-12-03T00:51:07.740Z,12.10
2018-12-03T00:53:37.618Z,12.00
2018-12-03T00:56:07.687Z,12.10
2018-12-03T00:58:37.560Z,12.10
2018-12-03T01:01:07.515Z,12.10
2018-12-03T01:03:37.419Z,12.10
2018-12-03T01:06:07.767Z,12.10
2018-12-03T01:08:37.619Z,12.10
2018-12-03T01:11:07.527Z,12.10
2018-12-03T01:13:37.389Z,12.10
2018-12-03T01:16:07.490Z,12.10
2018-12-03T01:18:37.370Z,12.10
2018-12-03T01:21:07.291Z,12.10
2018-12-03T01:23:37.165Z,12.10
2018-12-03T01:26:07.282Z,12.10
2018-12-03T01:28:37.148Z,12.10
2018-12-03T01:31:07.129Z,12.10
2018-12-03T01:33:37.001Z,12.10
2018-12-03T01:36:07.135Z,12.10
2018-12-03T01:38:37.045Z,12.10
2018-12-03T01:41:07.581Z,12.20
2018-12-03T01:43:37.442Z,12.10
2018-12-03T01:46:07.532Z,12.20
2018-12-03T01:48:37.579Z,12.20
2018-12-03T01:51:07.499Z,12.10
2018-12-03T01:53:37.383Z,12.20
2018-12-03T01:56:08.293Z,12.20
2018-12-03T01:58:38.168Z,12.20
2018-12-03T02:01:08.368Z,12.20
2018-12-03T02:03:38.347Z,12.20
2018-12-03T02:06:08.255Z,12.20
2018-12-03T02:08:38.481Z,12.20
2018-12-03T02:11:08.371Z,12.20
2018-12-03T02:13:38.246Z,12.20
2018-12-03T02:16:08.140Z,12.20
2018-12-03T02:18:38.047Z,12.20
2018-12-03T02:21:07.927Z,12.20
2018-12-03T02:23:37.806Z,12.20
2018-12-03T02:26:07.707Z,12.20
2018-12-03T02:28:37.619Z,12.20
2018-12-03T02:31:07.513Z,12.20
2018-12-03T02:33:37.418Z,12.20
2018-12-03T02:36:07.673Z,12.20
2018-12-03T02:38:37.542Z,12.20
2018-12-03T02:41:07.715Z,12.30
2018-12-03T02:43:37.596Z,12.20
2018-12-03T02:46:09.589Z,12.30
2018-12-03T02:48:39.467Z,12.20
2018-12-03T02:51:09.357Z,12.20
2018-12-03T02:53:39.257Z,12.20
2018-12-03T02:56:11.019Z,12.20
2018-12-03T02:58:40.914Z,12.30
2018-12-03T03:01:10.973Z,12.30
2018-12-03T03:03:40.832Z,12.30
2018-12-03T03:06:10.719Z,12.30
2018-12-03T03:08:40.608Z,12.30
2018-12-03T03:11:10.477Z,12.30
2018-12-03T03:13:40.369Z,12.30
2018-12-03T03:16:10.227Z,12.30
2018-12-03T03:18:40.119Z,12.30
2018-12-03T03:21:09.980Z,12.30
2018-12-03T03:23:39.859Z,12.30
2018-12-03T03:26:09.723Z,12.30
2018-12-03T03:28:39.609Z,12.30
2018-12-03T03:31:08.814Z,12.30
2018-12-03T03:33:38.730Z,12.30
2018-12-03T03:36:08.589Z,12.20
2018-12-03T03:38:38.479Z,12.20
2018-12-03T03:41:08.335Z,12.20
2018-12-03T03:43:38.224Z,12.20
2018-12-03T03:46:08.092Z,12.20
2018-12-03T03:48:37.969Z,12.20
2018-12-03T03:51:07.833Z,12.20
2018-12-03T03:53:37.692Z,12.30
2018-12-03T03:56:07.656Z,12.20
2018-12-03T03:58:37.588Z,12.30
2018-12-03T04:01:07.455Z,12.30
2018-12-03T04:03:37.354Z,12.30
2018-12-03T04:06:07.264Z,12.30
2018-12-03T04:08:37.168Z,12.30
2018-12-03T04:11:07.757Z,12.30
2018-12-03T04:13:37.656Z,12.30
2018-12-03T04:16:07.536Z,12.30
2018-12-03T04:18:37.725Z,12.30
2018-12-03T04:21:07.758Z,12.30
2018-12-03T04:23:37.700Z,12.30
2018-12-03T04:26:07.609Z,12.30
2018-12-03T04:28:39.376Z,12.20
2018-12-03T04:31:09.548Z,12.30
2018-12-03T04:33:39.421Z,12.30
2018-12-03T04:36:09.399Z,12.30
2018-12-03T04:38:39.355Z,12.30
2018-12-03T04:41:09.271Z,12.30
2018-12-03T04:43:39.157Z,12.30
2018-12-03T04:46:09.049Z,12.30
2018-12-03T04:48:38.922Z,12.30
2018-12-03T04:51:08.808Z,12.30
2018-12-03T04:53:38.681Z,12.30
2018-12-03T04:56:08.564Z,12.40
2018-12-03T04:58:38.425Z,12.40
2018-12-03T05:01:08.439Z,12.40
2018-12-03T05:03:38.353Z,12.40
2018-12-03T05:06:08.243Z,12.40
2018-12-03T05:08:38.084Z,12.40
2018-12-03T05:11:08.038Z,12.40
2018-12-03T05:13:37.992Z,12.40
2018-12-03T05:16:07.882Z,12.40
2018-12-03T05:18:37.747Z,12.40
2018-12-03T05:21:07.679Z,12.40
2018-12-03T05:23:37.536Z,12.40
2018-12-03T05:26:08.526Z,12.50
2018-12-03T05:28:38.421Z,12.40
2018-12-03T05:31:08.298Z,12.50
2018-12-03T05:33:38.179Z,12.50
2018-12-03T05:36:08.132Z,12.50
2018-12-03T05:38:38.015Z,12.50
2018-12-03T05:41:07.892Z,12.50
2018-12-03T05:43:37.811Z,12.50
2018-12-03T05:46:07.677Z,12.50
2018-12-03T05:48:37.548Z,12.50
2018-12-03T05:51:07.603Z,12.50
2018-12-03T05:53:37.490Z,12.50
2018-12-03T05:56:07.391Z,12.50
2018-12-03T05:58:37.283Z,12.50
2018-12-03T06:01:07.571Z,12.50
2018-12-03T06:03:38.568Z,12.50
2018-12-03T06:06:08.525Z,12.60
2018-12-03T06:08:38.411Z,12.60
2018-12-03T06:11:08.288Z,12.60
2018-12-03T06:13:38.175Z,12.60
2018-12-03T06:16:08.056Z,12.60
2018-12-03T06:18:37.961Z,12.60
2018-12-03T06:21:07.840Z,12.60
2018-12-03T06:23:37.728Z,12.60
2018-12-03T06:26:07.719Z,12.60
2018-12-03T06:28:37.888Z,12.60
2018-12-03T06:31:07.747Z,12.60
2018-12-03T06:33:37.632Z,12.60
2018-12-03T06:36:07.508Z,12.60
2018-12-03T06:38:37.414Z,12.60
2018-12-03T06:41:07.297Z,12.60
2018-12-03T06:43:37.192Z,12.60
2018-12-03T06:46:07.290Z,12.60
2018-12-03T06:48:37.172Z,12.60
2018-12-03T06:51:07.083Z,12.60
2018-12-03T06:53:36.975Z,12.60
2018-12-03T06:56:07.077Z,12.60
2018-12-03T06:58:36.956Z,12.60
2018-12-03T07:01:07.048Z,12.60
2018-12-03T07:03:36.919Z,12.60
2018-12-03T07:06:06.894Z,12.60
2018-12-03T07:08:36.796Z,12.60
2018-12-03T07:11:06.792Z,12.60
2018-12-03T07:13:36.672Z,12.60
2018-12-03T07:16:06.780Z,12.60
2018-12-03T07:18:36.856Z,12.60
2018-12-03T07:21:07.193Z,12.60
2018-12-03T07:23:37.101Z,12.60
2018-12-03T07:26:07.329Z,12.60
2018-12-03T07:28:37.205Z,12.60
2018-12-03T07:31:07.346Z,12.50
2018-12-03T07:33:37.204Z,12.50
2018-12-03T07:36:07.058Z,12.50
2018-12-03T07:38:36.943Z,12.50
2018-12-03T07:41:06.808Z,12.50
2018-12-03T07:43:36.692Z,12.50
2018-12-03T07:46:07.147Z,12.50
2018-12-03T07:48:37.023Z,12.50
2018-12-03T07:51:06.956Z,12.50
2018-12-03T07:53:36.873Z,12.50
2018-12-03T07:56:07.049Z,12.50
2018-12-03T07:58:36.931Z,12.50
2018-12-03T08:01:07.176Z,12.50
2018-12-03T08:03:37.020Z,12.50
2018-12-03T08:06:07.208Z,12.50
2018-12-03T08:08:37.403Z,12.50
2018-12-03T08:11:07.882Z,12.50
2018-12-03T08:13:37.729Z,12.50
2018-12-03T08:16:07.900Z,12.60
2018-12-03T08:18:37.763Z,12.50
2018-12-03T08:21:09.142Z,12.60
2018-12-03T08:23:59.150Z,12.60
2018-12-03T08:26:29.041Z,12.60
2018-12-03T08:28:58.942Z,12.60
2018-12-03T08:31:28.806Z,12.60
2018-12-03T08:33:58.691Z,12.60
2018-12-03T08:36:28.555Z,12.60
2018-12-03T08:38:59.147Z,12.60
2018-12-03T08:41:29.028Z,12.60
2018-12-03T08:43:58.971Z,12.60
2018-12-03T08:46:28.860Z,12.60
2018-12-03T08:48:58.715Z,12.60
2018-12-03T08:51:28.848Z,12.60
2018-12-03T08:53:58.727Z,12.50
2018-12-03T08:56:28.623Z,12.60
2018-12-03T08:58:58.507Z,12.60
2018-12-03T09:01:29.486Z,12.50
2018-12-03T09:04:07.583Z,12.50
2018-12-03T09:06:37.471Z,12.50
2018-12-03T09:09:10.945Z,12.50
2018-12-03T09:11:51.646Z,12.50
2018-12-03T09:14:28.211Z,12.50
2018-12-03T09:17:02.467Z,12.60
2018-12-03T09:19:30.524Z,12.60
2018-12-03T09:22:00.432Z,12.60
2018-12-03T09:24:30.312Z,12.60
2018-12-03T09:27:00.231Z,12.70
2018-12-03T09:29:30.131Z,12.70
2018-12-03T09:32:00.312Z,12.70
2018-12-03T09:34:30.201Z,12.70
2018-12-03T09:37:00.065Z,12.70
2018-12-03T09:39:29.961Z,12.70
2018-12-03T09:41:59.838Z,12.70
2018-12-03T09:44:29.716Z,12.70
2018-12-03T09:46:59.596Z,12.70
2018-12-03T09:49:29.489Z,12.70
2018-12-03T09:51:59.372Z,12.80
2018-12-03T09:54:29.559Z,12.80
2018-12-03T09:56:59.623Z,12.80
2018-12-03T09:59:29.525Z,12.90
2018-12-03T10:02:01.720Z,12.90
2018-12-03T10:04:36.849Z,12.90
2018-12-03T10:07:07.085Z,13.00
2018-12-03T10:09:38.646Z,13.00
2018-12-03T10:12:09.763Z,13.00
2018-12-03T10:14:39.670Z,12.90
2018-12-03T10:17:09.547Z,12.90
2018-12-03T10:19:39.462Z,12.90
2018-12-03T10:22:09.584Z,12.90
2018-12-03T10:24:39.693Z,12.90
2018-12-03T10:27:11.915Z,12.90
2018-12-03T10:29:42.248Z,12.80
2018-12-03T10:32:17.077Z,12.80
2018-12-03T10:34:47.107Z,12.80
2018-12-03T10:37:18.432Z,12.80
2018-12-03T10:39:49.347Z,12.80
2018-12-03T10:42:19.766Z,12.70
2018-12-03T10:44:50.135Z,12.80
2018-12-03T10:47:20.040Z,12.80
2018-12-03T10:49:50.050Z,12.80
2018-12-03T10:52:21.798Z,12.80
2018-12-03T10:54:51.708Z,12.70
2018-12-03T10:57:22.656Z,12.70
2018-12-03T10:59:54.637Z,12.70
2018-12-03T11:02:34.487Z,12.70
2018-12-03T11:05:21.884Z,12.70
2018-12-03T11:07:51.950Z,12.70
2018-12-03T11:10:21.931Z,12.60
2018-12-03T11:12:55.030Z,12.60
2018-12-03T11:15:25.031Z,12.50
2018-12-03T11:17:55.000Z,12.50
2018-12-03T11:20:25.405Z,12.40
2018-12-03T11:22:55.383Z,12.40
2018-12-03T11:25:29.729Z,12.40
2018-12-03T11:28:01.457Z,12.40
2018-12-03T11:30:31.985Z,12.40
2018-12-03T11:33:01.862Z,12.50
2018-12-03T11:35:32.716Z,12.50
2018-12-03T11:38:12.001Z,12.50
2018-12-03T11:40:53.738Z,12.50
2018-12-03T11:43:25.047Z,12.50
2018-12-03T11:45:55.082Z,12.50
2018-12-03T11:48:24.968Z,12.50
2018-12-03T11:50:54.933Z,12.50
2018-12-03T11:53:25.060Z,12.50
2018-12-03T11:55:55.452Z,12.60
2018-12-03T11:58:25.335Z,12.60
2018-12-03T12:00:55.409Z,12.50
2018-12-03T12:03:25.302Z,12.60
2018-12-03T12:05:55.179Z,12.50
2018-12-03T12:08:25.279Z,12.50
2018-12-03T12:10:55.132Z,12.50
2018-12-03T12:13:26.925Z,12.60
2018-12-03T12:15:57.127Z,12.60
2018-12-03T12:18:27.009Z,12.60
2018-12-03T12:20:56.908Z,12.60
2018-12-03T12:23:28.134Z,12.60
2018-12-03T12:25:58.040Z,12.60
2018-12-03T12:28:27.923Z,12.60
2018-12-03T12:30:57.804Z,12.60
2018-12-03T12:33:27.680Z,12.60
2018-12-03T12:35:57.560Z,12.60
2018-12-03T12:38:27.461Z,12.60
2018-12-03T12:40:57.333Z,12.60
2018-12-03T12:43:27.220Z,12.60
2018-12-03T12:46:00.051Z,12.60
2018-12-03T12:48:30.030Z,12.60
2018-12-03T12:50:59.997Z,12.60
2018-12-03T12:53:30.036Z,12.60
2018-12-03T12:55:59.998Z,12.60
2018-12-03T12:58:29.892Z,12.60
2018-12-03T13:00:59.841Z,12.60
2018-12-03T13:03:30.410Z,12.60
2018-12-03T13:06:00.259Z,12.60
2018-12-03T13:08:30.135Z,12.60
2018-12-03T13:11:00.032Z,12.60
2018-12-03T13:13:29.895Z,12.60
2018-12-03T13:15:59.736Z,12.60
2018-12-03T13:18:29.600Z,12.60
2018-12-03T13:20:59.463Z,12.70
2018-12-03T13:23:29.340Z,12.70
2018-12-03T13:25:59.834Z,12.70
2018-12-03T13:28:29.700Z,12.70
2018-12-03T13:30:59.555Z,12.60
2018-12-03T13:33:40.876Z,12.70
2018-12-03T13:36:11.051Z,12.70
2018-12-03T13:38:41.011Z,12.60
2018-12-03T13:41:10.901Z,12.60
2018-12-03T13:43:40.886Z,12.60
2018-12-03T13:46:10.745Z,12.60
2018-12-03T13:48:40.608Z,12.60
2018-12-03T13:51:10.461Z,12.60
2018-12-03T13:53:40.371Z,12.60
2018-12-03T13:56:10.290Z,12.60
2018-12-03T13:58:40.188Z,12.60
2018-12-03T14:01:10.051Z,12.70
2018-12-03T14:03:41.140Z,12.60
2018-12-03T14:06:23.257Z,12.70
2018-12-03T14:09:23.013Z,12.60
2018-12-03T14:12:41.920Z,12.60
2018-12-03T14:15:36.104Z,12.60
2018-12-03T14:18:33.295Z,12.60
2018-12-03T14:21:19.345Z,12.50
2018-12-03T14:23:51.296Z,12.50
2018-12-03T14:26:21.180Z,12.50
2018-12-03T14:28:51.108Z,12.50
2018-12-03T14:31:21.087Z,12.50
2018-12-03T14:33:51.187Z,12.50
2018-12-03T14:36:21.116Z,12.40
2018-12-03T14:38:50.992Z,12.40
2018-12-03T14:41:21.139Z,12.40
2018-12-03T14:43:51.000Z,12.40
2018-12-03T14:46:20.888Z,12.40
2018-12-03T14:48:50.771Z,12.40
2018-12-03T14:51:20.664Z,12.30
2018-12-03T14:53:50.583Z,12.40
2018-12-03T14:56:20.472Z,12.30
2018-12-03T14:58:50.387Z,12.30
2018-12-03T15:01:20.320Z,12.30
2018-12-03T15:03:50.221Z,12.30
2018-12-03T15:06:20.116Z,12.30
2018-12-03T15:08:49.999Z,12.30
2018-12-03T15:11:19.904Z,12.30
2018-12-03T15:13:49.778Z,12.30
2018-12-03T15:16:19.675Z,12.30
2018-12-03T15:18:49.548Z,12.30
2018-12-03T15:21:19.456Z,12.30
2018-12-03T15:23:49.323Z,12.30
2018-12-03T15:26:19.240Z,12.30
2018-12-03T15:28:49.179Z,12.30
2018-12-03T15:31:19.327Z,12.20
2018-12-03T15:33:49.544Z,12.20
2018-12-03T15:36:19.478Z,12.20
2018-12-03T15:38:49.352Z,12.20
2018-12-03T15:41:19.216Z,12.20
2018-12-03T15:43:49.099Z,12.20
2018-12-03T15:46:19.075Z,12.20
2018-12-03T15:48:49.091Z,12.20
2018-12-03T15:51:19.303Z,12.20
2018-12-03T15:53:49.192Z,12.20
2018-12-03T15:56:19.176Z,12.20
2018-12-03T15:58:49.037Z,12.20
2018-12-03T16:01:19.888Z,12.20
2018-12-03T16:03:49.794Z,12.20
2018-12-03T16:06:19.674Z,12.20
2018-12-03T16:08:49.555Z,12.10
2018-12-03T16:11:19.404Z,12.20
2018-12-03T16:13:49.272Z,12.20
2018-12-03T16:16:19.157Z,12.20
2018-12-03T16:18:49.133Z,12.10
2018-12-03T16:21:19.004Z,12.10
2018-12-03T16:23:48.987Z,12.10
2018-12-03T16:26:18.828Z,12.10
2018-12-03T16:28:48.716Z,12.10
2018-12-03T16:31:18.576Z,12.20
2018-12-03T16:33:48.452Z,12.10
2018-12-03T16:36:18.330Z,12.20
2018-12-03T16:38:48.579Z,12.20
2018-12-03T16:41:18.424Z,12.20
2018-12-03T16:43:48.316Z,12.10
2018-12-03T16:46:18.168Z,12.20
2018-12-03T16:48:48.075Z,12.20
2018-12-03T16:51:18.214Z,12.20
2018-12-03T16:53:48.124Z,12.10
2018-12-03T16:56:18.015Z,12.20
2018-12-03T16:58:47.928Z,12.10
2018-12-03T17:01:17.807Z,12.10
2018-12-03T17:03:47.998Z,12.20
2018-12-03T17:06:18.144Z,12.20
2018-12-03T17:08:48.060Z,12.20
2018-12-03T17:11:17.949Z,12.10
2018-12-03T17:13:47.848Z,12.20
2018-12-03T17:16:17.712Z,12.20
2018-12-03T17:18:49.519Z,12.20
2018-12-03T17:22:10.404Z,12.20
2018-12-03T17:24:41.434Z,12.20
2018-12-03T17:27:11.396Z,12.20
2018-12-03T17:29:41.303Z,12.20
2018-12-03T17:32:11.203Z,12.20
2018-12-03T17:34:41.104Z,12.20
2018-12-03T17:37:11.012Z,12.20
2018-12-03T17:39:40.899Z,12.10
2018-12-03T17:42:10.781Z,12.10
2018-12-03T17:44:40.796Z,12.10
2018-12-03T17:47:10.668Z,12.10
2018-12-03T17:49:40.567Z,12.10
2018-12-03T17:52:10.458Z,12.10
2018-12-03T17:54:40.669Z,12.00
2018-12-03T17:57:10.530Z,12.00
2018-12-03T17:59:40.464Z,12.00
2018-12-03T18:02:10.334Z,12.00
2018-12-03T18:04:40.215Z,11.90
2018-12-03T18:07:10.050Z,11.90
2018-12-03T18:09:39.934Z,11.90
2018-12-03T18:12:09.782Z,11.90
2018-12-03T18:14:40.823Z,11.90
2018-12-03T18:17:10.714Z,11.90
2018-12-03T18:19:40.615Z,11.90
2018-12-03T18:22:10.468Z,11.80
2018-12-03T18:24:40.352Z,11.90
2018-12-03T18:27:10.196Z,11.90
2018-12-03T18:29:40.063Z,11.80
2018-12-03T18:32:09.927Z,11.80
2018-12-03T18:34:39.792Z,11.70
2018-12-03T18:37:09.664Z,11.70
2018-12-03T18:39:39.570Z,11.70
2018-12-03T18:42:09.432Z,11.70
2018-12-03T18:44:39.337Z,11.70
2018-12-03T18:47:09.263Z,11.70
2018-12-03T18:49:42.331Z,11.70
2018-12-03T18:52:13.280Z,11.70
2018-12-03T18:54:43.179Z,11.70
2018-12-03T18:57:13.044Z,11.70
2018-12-03T18:59:42.936Z,11.70
2018-12-03T19:02:13.147Z,11.70
2018-12-03T19:04:43.028Z,11.70
2018-12-03T19:07:12.898Z,11.60
2018-12-03T19:09:42.884Z,11.70
2018-12-03T19:12:12.768Z,11.70
2018-12-03T19:14:42.776Z,11.70
2018-12-03T19:17:12.635Z,11.70
2018-12-03T19:19:42.529Z,11.70
2018-12-03T19:22:13.388Z,11.70
2018-12-03T19:24:43.248Z,11.80
2018-12-03T19:27:13.459Z,11.80
2018-12-03T19:29:43.324Z,11.80
2018-12-03T19:32:15.091Z,11.80
2018-12-03T19:34:46.847Z,11.80
2018-12-03T19:37:18.623Z,11.80
2018-12-03T19:39:49.066Z,11.80
2018-12-03T19:42:18.936Z,11.90
2018-12-03T19:44:48.791Z,11.90
2018-12-03T19:47:18.836Z,11.90
2018-12-03T19:49:48.687Z,11.90
2018-12-03T19:52:18.564Z,11.90
2018-12-03T19:54:49.225Z,11.80
2018-12-03T19:57:23.045Z,11.80
2018-12-03T19:59:54.680Z,11.80
2018-12-03T20:02:24.559Z,11.80
2018-12-03T20:04:54.702Z,11.80
2018-12-03T20:07:24.684Z,11.80
2018-12-03T20:09:58.720Z,11.80
2018-12-03T20:12:28.604Z,11.80
2018-12-03T20:14:58.476Z,11.70
2018-12-03T20:17:31.581Z,11.70
2018-12-03T20:20:01.468Z,11.70
2018-12-03T20:22:36.928Z,11.70
2018-12-03T20:25:08.904Z,11.70
2018-12-03T20:27:54.068Z,11.70
2018-12-03T20:31:14.140Z,11.70
2018-12-03T20:34:11.247Z,11.70
2018-12-03T20:37:36.931Z,11.70
2018-12-03T20:40:34.544Z,11.70
2018-12-03T20:43:08.022Z,11.70
2018-12-03T20:46:23.671Z,11.80
2018-12-03T20:49:30.883Z,11.80
2018-12-03T20:52:06.312Z,11.80
2018-12-03T20:54:36.184Z,11.80
2018-12-03T20:57:06.102Z,11.70
2018-12-03T20:59:35.967Z,11.70
2018-12-03T21:02:08.665Z,11.70
2018-12-03T21:04:38.758Z,11.70
2018-12-03T21:07:08.704Z,11.70
2018-12-03T21:09:38.606Z,11.70
2018-12-03T21:12:08.500Z,11.70
2018-12-03T21:14:38.372Z,11.70
2018-12-03T21:17:08.276Z,11.70
2018-12-03T21:19:38.227Z,11.70
2018-12-03T21:22:08.210Z,11.70
2018-12-03T21:24:38.136Z,11.70
2018-12-03T21:27:08.021Z,11.70
2018-12-03T21:29:37.887Z,11.70
2018-12-03T21:32:07.748Z,11.60
2018-12-03T21:34:37.619Z,11.60
2018-12-03T21:37:07.485Z,11.40
2018-12-03T21:39:37.716Z,11.10
2018-12-03T21:42:07.556Z,10.90
2018-12-03T21:44:37.416Z,10.80
2018-12-03T21:47:07.264Z,10.60
2018-12-03T21:49:37.496Z,10.40
2018-12-03T21:52:07.355Z,10.30
2018-12-03T21:54:37.260Z,10.30
2018-12-03T21:57:10.734Z,10.20
2018-12-03T21:59:38.931Z,10.30
2018-12-03T22:02:08.798Z,10.30
2018-12-03T22:04:38.773Z,10.20
2018-12-03T22:07:08.679Z,10.00
2018-12-03T22:09:38.595Z,10.00
2018-12-03T22:12:08.458Z,10.00
2018-12-03T22:14:38.354Z,9.80
2018-12-03T22:17:08.237Z,9.60
2018-12-03T22:19:38.107Z,9.60
2018-12-03T22:22:07.969Z,9.60
2018-12-03T22:24:37.901Z,9.60
2018-12-03T22:27:07.788Z,9.60
2018-12-03T22:29:37.905Z,9.60
2018-12-03T22:32:07.765Z,9.70
2018-12-03T22:34:37.644Z,9.60
2018-12-03T22:37:07.515Z,9.60
2018-12-03T22:39:37.405Z,9.50
2018-12-03T22:42:07.259Z,9.50
2018-12-03T22:44:37.140Z,9.50
2018-12-03T22:47:07.020Z,9.40
2018-12-03T22:49:36.888Z,9.30
2018-12-03T22:52:06.760Z,9.30
2018-12-03T22:54:36.640Z,9.20
2018-12-03T22:57:06.776Z,9.30
2018-12-03T22:59:36.636Z,9.20
2018-12-03T23:02:06.627Z,9.30
2018-12-03T23:04:41.295Z,9.30
2018-12-03T23:07:11.132Z,9.30
2018-12-03T23:09:40.990Z,9.30
2018-12-03T23:12:10.843Z,9.50
2018-12-03T23:14:41.045Z,9.50
2018-12-03T23:17:10.894Z,9.60
2018-12-03T23:19:40.751Z,9.60
2018-12-03T23:22:10.611Z,9.70
2018-12-03T23:24:40.471Z,9.70
2018-12-03T23:27:10.363Z,9.70
2018-12-03T23:29:40.206Z,9.60
2018-12-03T23:32:10.079Z,9.60
2018-12-03T23:34:39.972Z,9.50
2018-12-03T23:37:09.817Z,9.60
2018-12-03T23:39:39.667Z,9.60
2018-12-03T23:42:09.529Z,9.70
2018-12-03T23:44:39.382Z,9.70
2018-12-03T23:47:09.244Z,9.80
2018-12-03T23:49:39.099Z,9.80
2018-12-03T23:52:08.952Z,9.80
2018-12-03T23:54:39.105Z,9.80
2018-12-03T23:57:09.039Z,9.60
2018-12-03T23:59:38.896Z,9.70
